sensor_id;sensor_type;location;lat;lon;timestamp;P1;durP1;ratioP1;P2;durP2;ratioP2
5295;SDS011;2670;42.720;23.336;2023-08-31T00:01:30;6.20;;;2.63;;
5295;SDS011;2670;42.720;23.336;2023-08-31T00:03:58;7.30;;;2.80;;
5295;SDS011;2670;42.720;23.336;2023-08-31T00:06:27;6.57;;;2.70;;
5295;SDS011;2670;42.720;23.336;2023-08-31T00:08:53;5.97;;;2.70;;
5295;SDS011;2670;42.720;23.336;2023-08-31T00:11:20;4.77;;;2.50;;
5295;SDS011;2670;42.720;23.336;2023-08-31T00:13:47;5.27;;;2.40;;
5295;SDS011;2670;42.720;23.336;2023-08-31T00:16:13;8.37;;;2.83;;
5295;SDS011;2670;42.720;23.336;2023-08-31T00:18:40;7.13;;;2.50;;
5295;SDS011;2670;42.720;23.336;2023-08-31T00:21:07;3.43;;;2.10;;
5295;SDS011;2670;42.720;23.336;2023-08-31T00:23:36;8.37;;;3.20;;
5295;SDS011;2670;42.720;23.336;2023-08-31T00:26:03;5.03;;;2.37;;
5295;SDS011;2670;42.720;23.336;2023-08-31T00:28:30;4.27;;;2.20;;
5295;SDS011;2670;42.720;23.336;2023-08-31T00:30:57;5.23;;;2.80;;
5295;SDS011;2670;42.720;23.336;2023-08-31T00:33:28;9.20;;;2.93;;
5295;SDS011;2670;42.720;23.336;2023-08-31T00:35:55;13.30;;;2.87;;
5295;SDS011;2670;42.720;23.336;2023-08-31T00:38:22;3.90;;;2.20;;
5295;SDS011;2670;42.720;23.336;2023-08-31T00:40:51;10.00;;;2.60;;
5295;SDS011;2670;42.720;23.336;2023-08-31T00:43:19;9.93;;;2.83;;
5295;SDS011;2670;42.720;23.336;2023-08-31T00:45:47;6.03;;;2.60;;
5295;SDS011;2670;42.720;23.336;2023-08-31T00:48:15;7.13;;;2.80;;
5295;SDS011;2670;42.720;23.336;2023-08-31T00:50:43;6.00;;;2.50;;
5295;SDS011;2670;42.720;23.336;2023-08-31T00:53:10;8.27;;;3.00;;
5295;SDS011;2670;42.720;23.336;2023-08-31T00:55:37;5.90;;;2.70;;
5295;SDS011;2670;42.720;23.336;2023-08-31T00:58:06;5.87;;;2.67;;
5295;SDS011;2670;42.720;23.336;2023-08-31T01:00:36;5.70;;;2.70;;
5295;SDS011;2670;42.720;23.336;2023-08-31T01:03:12;11.63;;;3.60;;
5295;SDS011;2670;42.720;23.336;2023-08-31T01:05:44;11.93;;;2.07;;
5295;SDS011;2670;42.720;23.336;2023-08-31T01:08:19;7.03;;;2.43;;
5295;SDS011;2670;42.720;23.336;2023-08-31T01:10:58;4.20;;;2.17;;
5295;SDS011;2670;42.720;23.336;2023-08-31T01:13:31;6.27;;;2.73;;
5295;SDS011;2670;42.720;23.336;2023-08-31T01:16:02;4.93;;;2.83;;
5295;SDS011;2670;42.720;23.336;2023-08-31T01:18:32;10.60;;;2.60;;
5295;SDS011;2670;42.720;23.336;2023-08-31T01:21:02;10.70;;;2.33;;
5295;SDS011;2670;42.720;23.336;2023-08-31T01:23:51;6.10;;;2.33;;
5295;SDS011;2670;42.720;23.336;2023-08-31T01:26:18;8.00;;;2.80;;
5295;SDS011;2670;42.720;23.336;2023-08-31T01:28:46;7.90;;;2.97;;
5295;SDS011;2670;42.720;23.336;2023-08-31T01:31:13;7.23;;;2.90;;
5295;SDS011;2670;42.720;23.336;2023-08-31T01:33:40;5.83;;;2.40;;
5295;SDS011;2670;42.720;23.336;2023-08-31T01:36:08;6.70;;;2.60;;
5295;SDS011;2670;42.720;23.336;2023-08-31T01:38:41;8.93;;;3.27;;
5295;SDS011;2670;42.720;23.336;2023-08-31T01:41:13;4.63;;;2.60;;
5295;SDS011;2670;42.720;23.336;2023-08-31T01:43:42;5.20;;;2.43;;
5295;SDS011;2670;42.720;23.336;2023-08-31T01:46:10;5.00;;;2.70;;
5295;SDS011;2670;42.720;23.336;2023-08-31T01:48:38;5.00;;;2.47;;
5295;SDS011;2670;42.720;23.336;2023-08-31T01:51:06;6.50;;;3.00;;
5295;SDS011;2670;42.720;23.336;2023-08-31T01:53:33;6.23;;;3.10;;
5295;SDS011;2670;42.720;23.336;2023-08-31T01:55:59;5.27;;;2.70;;
5295;SDS011;2670;42.720;23.336;2023-08-31T01:58:28;6.40;;;3.00;;
5295;SDS011;2670;42.720;23.336;2023-08-31T02:00:54;4.57;;;3.07;;
5295;SDS011;2670;42.720;23.336;2023-08-31T02:03:21;6.10;;;3.50;;
5295;SDS011;2670;42.720;23.336;2023-08-31T02:05:48;6.27;;;2.73;;
5295;SDS011;2670;42.720;23.336;2023-08-31T02:08:15;7.13;;;2.40;;
5295;SDS011;2670;42.720;23.336;2023-08-31T02:10:43;6.67;;;2.50;;
5295;SDS011;2670;42.720;23.336;2023-08-31T02:13:09;6.07;;;2.93;;
5295;SDS011;2670;42.720;23.336;2023-08-31T02:15:38;5.33;;;2.63;;
5295;SDS011;2670;42.720;23.336;2023-08-31T02:18:07;11.43;;;3.00;;
5295;SDS011;2670;42.720;23.336;2023-08-31T02:20:33;12.17;;;3.30;;
5295;SDS011;2670;42.720;23.336;2023-08-31T02:23:00;7.80;;;2.77;;
5295;SDS011;2670;42.720;23.336;2023-08-31T02:25:27;5.33;;;2.80;;
5295;SDS011;2670;42.720;23.336;2023-08-31T02:27:54;10.73;;;5.60;;
5295;SDS011;2670;42.720;23.336;2023-08-31T02:30:21;19.93;;;11.53;;
5295;SDS011;2670;42.720;23.336;2023-08-31T02:32:49;32.33;;;21.20;;
5295;SDS011;2670;42.720;23.336;2023-08-31T02:35:15;31.30;;;18.30;;
5295;SDS011;2670;42.720;23.336;2023-08-31T02:37:42;31.90;;;15.60;;
5295;SDS011;2670;42.720;23.336;2023-08-31T02:40:09;29.10;;;17.00;;
5295;SDS011;2670;42.720;23.336;2023-08-31T02:42:35;29.90;;;14.63;;
5295;SDS011;2670;42.720;23.336;2023-08-31T02:45:02;30.20;;;14.63;;
5295;SDS011;2670;42.720;23.336;2023-08-31T02:47:30;19.93;;;11.00;;
5295;SDS011;2670;42.720;23.336;2023-08-31T02:49:58;21.97;;;12.50;;
5295;SDS011;2670;42.720;23.336;2023-08-31T02:52:25;16.70;;;8.30;;
5295;SDS011;2670;42.720;23.336;2023-08-31T02:54:51;20.70;;;9.60;;
5295;SDS011;2670;42.720;23.336;2023-08-31T02:57:18;8.90;;;4.93;;
5295;SDS011;2670;42.720;23.336;2023-08-31T02:59:49;7.03;;;3.80;;
5295;SDS011;2670;42.720;23.336;2023-08-31T03:02:16;11.73;;;3.93;;
5295;SDS011;2670;42.720;23.336;2023-08-31T03:04:43;6.07;;;3.40;;
5295;SDS011;2670;42.720;23.336;2023-08-31T03:07:11;9.60;;;3.73;;
5295;SDS011;2670;42.720;23.336;2023-08-31T03:09:39;6.07;;;3.13;;
5295;SDS011;2670;42.720;23.336;2023-08-31T03:12:06;8.17;;;3.10;;
5295;SDS011;2670;42.720;23.336;2023-08-31T03:14:33;12.27;;;3.43;;
5295;SDS011;2670;42.720;23.336;2023-08-31T03:16:59;6.17;;;3.00;;
5295;SDS011;2670;42.720;23.336;2023-08-31T03:19:26;12.97;;;6.77;;
5295;SDS011;2670;42.720;23.336;2023-08-31T03:21:53;37.43;;;23.33;;
5295;SDS011;2670;42.720;23.336;2023-08-31T03:24:21;38.40;;;25.87;;
5295;SDS011;2670;42.720;23.336;2023-08-31T03:26:48;58.27;;;42.97;;
5295;SDS011;2670;42.720;23.336;2023-08-31T03:29:15;73.67;;;48.83;;
5295;SDS011;2670;42.720;23.336;2023-08-31T03:31:43;78.73;;;55.53;;
5295;SDS011;2670;42.720;23.336;2023-08-31T03:34:10;89.47;;;62.50;;
5295;SDS011;2670;42.720;23.336;2023-08-31T03:36:37;104.37;;;74.87;;
5295;SDS011;2670;42.720;23.336;2023-08-31T03:39:03;93.90;;;70.63;;
5295;SDS011;2670;42.720;23.336;2023-08-31T03:41:33;68.70;;;49.80;;
5295;SDS011;2670;42.720;23.336;2023-08-31T03:44:03;45.83;;;32.03;;
5295;SDS011;2670;42.720;23.336;2023-08-31T03:46:30;31.37;;;21.60;;
5295;SDS011;2670;42.720;23.336;2023-08-31T03:48:56;25.13;;;17.10;;
5295;SDS011;2670;42.720;23.336;2023-08-31T03:51:23;25.00;;;16.37;;
5295;SDS011;2670;42.720;23.336;2023-08-31T03:53:50;21.47;;;13.30;;
5295;SDS011;2670;42.720;23.336;2023-08-31T03:56:16;14.70;;;8.87;;
5295;SDS011;2670;42.720;23.336;2023-08-31T03:58:44;14.87;;;7.40;;
5295;SDS011;2670;42.720;23.336;2023-08-31T04:01:11;13.10;;;6.40;;
5295;SDS011;2670;42.720;23.336;2023-08-31T04:03:39;13.90;;;6.77;;
5295;SDS011;2670;42.720;23.336;2023-08-31T04:06:06;16.47;;;7.00;;
5295;SDS011;2670;42.720;23.336;2023-08-31T04:08:32;15.17;;;6.57;;
5295;SDS011;2670;42.720;23.336;2023-08-31T04:10:59;12.80;;;7.77;;
5295;SDS011;2670;42.720;23.336;2023-08-31T04:13:28;21.43;;;13.33;;
5295;SDS011;2670;42.720;23.336;2023-08-31T04:15:56;25.73;;;14.57;;
5295;SDS011;2670;42.720;23.336;2023-08-31T04:18:22;21.87;;;13.90;;
5295;SDS011;2670;42.720;23.336;2023-08-31T04:20:49;18.63;;;12.10;;
5295;SDS011;2670;42.720;23.336;2023-08-31T04:23:17;21.03;;;11.47;;
5295;SDS011;2670;42.720;23.336;2023-08-31T04:25:44;19.97;;;11.00;;
5295;SDS011;2670;42.720;23.336;2023-08-31T04:28:11;17.23;;;9.60;;
5295;SDS011;2670;42.720;23.336;2023-08-31T04:30:38;19.43;;;10.60;;
5295;SDS011;2670;42.720;23.336;2023-08-31T04:33:07;19.77;;;10.33;;
5295;SDS011;2670;42.720;23.336;2023-08-31T04:35:34;23.37;;;9.20;;
5295;SDS011;2670;42.720;23.336;2023-08-31T04:38:00;15.87;;;8.60;;
5295;SDS011;2670;42.720;23.336;2023-08-31T04:40:27;11.87;;;7.00;;
5295;SDS011;2670;42.720;23.336;2023-08-31T04:42:54;13.50;;;6.20;;
5295;SDS011;2670;42.720;23.336;2023-08-31T04:45:21;13.73;;;6.47;;
5295;SDS011;2670;42.720;23.336;2023-08-31T04:47:48;11.53;;;6.53;;
5295;SDS011;2670;42.720;23.336;2023-08-31T04:50:18;15.97;;;6.20;;
5295;SDS011;2670;42.720;23.336;2023-08-31T04:52:44;11.43;;;5.73;;
5295;SDS011;2670;42.720;23.336;2023-08-31T04:55:12;12.77;;;6.03;;
5295;SDS011;2670;42.720;23.336;2023-08-31T04:57:39;16.57;;;9.40;;
5295;SDS011;2670;42.720;23.336;2023-08-31T05:00:06;15.40;;;8.80;;
5295;SDS011;2670;42.720;23.336;2023-08-31T05:02:34;18.43;;;7.73;;
5295;SDS011;2670;42.720;23.336;2023-08-31T05:05:01;10.97;;;6.70;;
5295;SDS011;2670;42.720;23.336;2023-08-31T05:07:29;15.17;;;5.87;;
5295;SDS011;2670;42.720;23.336;2023-08-31T05:09:56;12.47;;;5.93;;
5295;SDS011;2670;42.720;23.336;2023-08-31T05:12:23;18.20;;;6.10;;
5295;SDS011;2670;42.720;23.336;2023-08-31T05:14:49;9.93;;;4.93;;
5295;SDS011;2670;42.720;23.336;2023-08-31T05:17:16;12.30;;;4.90;;
5295;SDS011;2670;42.720;23.336;2023-08-31T05:19:43;9.87;;;5.73;;
5295;SDS011;2670;42.720;23.336;2023-08-31T05:22:10;14.70;;;4.60;;
5295;SDS011;2670;42.720;23.336;2023-08-31T05:24:38;8.10;;;3.77;;
5295;SDS011;2670;42.720;23.336;2023-08-31T05:27:04;10.93;;;3.83;;
5295;SDS011;2670;42.720;23.336;2023-08-31T05:29:31;10.93;;;4.23;;
5295;SDS011;2670;42.720;23.336;2023-08-31T05:31:58;6.47;;;3.23;;
5295;SDS011;2670;42.720;23.336;2023-08-31T05:34:24;10.93;;;3.47;;
5295;SDS011;2670;42.720;23.336;2023-08-31T05:36:51;7.37;;;3.77;;
5295;SDS011;2670;42.720;23.336;2023-08-31T05:39:18;12.53;;;3.97;;
5295;SDS011;2670;42.720;23.336;2023-08-31T05:41:46;8.93;;;4.00;;
5295;SDS011;2670;42.720;23.336;2023-08-31T05:44:13;6.40;;;3.70;;
5295;SDS011;2670;42.720;23.336;2023-08-31T05:46:40;6.83;;;3.50;;
5295;SDS011;2670;42.720;23.336;2023-08-31T05:49:06;12.33;;;3.53;;
5295;SDS011;2670;42.720;23.336;2023-08-31T05:51:33;10.47;;;4.50;;
5295;SDS011;2670;42.720;23.336;2023-08-31T05:54:00;8.77;;;4.30;;
5295;SDS011;2670;42.720;23.336;2023-08-31T05:56:28;17.93;;;4.03;;
5295;SDS011;2670;42.720;23.336;2023-08-31T05:58:56;10.53;;;4.07;;
5295;SDS011;2670;42.720;23.336;2023-08-31T06:01:22;18.03;;;5.17;;
5295;SDS011;2670;42.720;23.336;2023-08-31T06:03:49;7.33;;;4.20;;
5295;SDS011;2670;42.720;23.336;2023-08-31T06:06:16;12.10;;;4.83;;
5295;SDS011;2670;42.720;23.336;2023-08-31T06:08:43;16.43;;;5.70;;
5295;SDS011;2670;42.720;23.336;2023-08-31T06:11:09;19.17;;;7.00;;
5295;SDS011;2670;42.720;23.336;2023-08-31T06:13:38;14.07;;;4.10;;
5295;SDS011;2670;42.720;23.336;2023-08-31T06:16:06;11.40;;;4.37;;
5295;SDS011;2670;42.720;23.336;2023-08-31T06:18:33;8.83;;;4.50;;
5295;SDS011;2670;42.720;23.336;2023-08-31T06:21:00;16.80;;;5.73;;
5295;SDS011;2670;42.720;23.336;2023-08-31T06:23:26;7.33;;;3.83;;
5295;SDS011;2670;42.720;23.336;2023-08-31T06:25:53;8.97;;;3.50;;
5295;SDS011;2670;42.720;23.336;2023-08-31T06:28:20;10.33;;;4.00;;
5295;SDS011;2670;42.720;23.336;2023-08-31T06:30:46;6.50;;;3.20;;
5295;SDS011;2670;42.720;23.336;2023-08-31T06:33:15;9.83;;;3.20;;
5295;SDS011;2670;42.720;23.336;2023-08-31T06:35:42;4.07;;;2.57;;
5295;SDS011;2670;42.720;23.336;2023-08-31T06:38:11;8.83;;;3.10;;
5295;SDS011;2670;42.720;23.336;2023-08-31T06:40:38;5.33;;;2.63;;
5295;SDS011;2670;42.720;23.336;2023-08-31T06:43:05;8.50;;;2.70;;
5295;SDS011;2670;42.720;23.336;2023-08-31T06:45:31;8.07;;;3.20;;
5295;SDS011;2670;42.720;23.336;2023-08-31T06:47:59;9.30;;;3.23;;
5295;SDS011;2670;42.720;23.336;2023-08-31T06:50:27;7.30;;;3.63;;
5295;SDS011;2670;42.720;23.336;2023-08-31T06:52:54;7.57;;;2.77;;
5295;SDS011;2670;42.720;23.336;2023-08-31T06:55:20;6.83;;;3.00;;
5295;SDS011;2670;42.720;23.336;2023-08-31T06:57:48;21.40;;;3.30;;
5295;SDS011;2670;42.720;23.336;2023-08-31T07:00:14;15.70;;;4.30;;
5295;SDS011;2670;42.720;23.336;2023-08-31T07:02:43;4.70;;;2.37;;
5295;SDS011;2670;42.720;23.336;2023-08-31T07:05:10;9.23;;;3.20;;
5295;SDS011;2670;42.720;23.336;2023-08-31T07:07:38;8.63;;;2.60;;
5295;SDS011;2670;42.720;23.336;2023-08-31T07:10:06;10.10;;;2.83;;
5295;SDS011;2670;42.720;23.336;2023-08-31T07:12:33;4.73;;;2.10;;
5295;SDS011;2670;42.720;23.336;2023-08-31T07:15:00;9.50;;;2.60;;
5295;SDS011;2670;42.720;23.336;2023-08-31T07:17:27;6.10;;;2.40;;
5295;SDS011;2670;42.720;23.336;2023-08-31T07:19:54;4.60;;;2.30;;
5295;SDS011;2670;42.720;23.336;2023-08-31T07:22:20;8.03;;;2.20;;
5295;SDS011;2670;42.720;23.336;2023-08-31T07:24:48;5.60;;;2.60;;
5295;SDS011;2670;42.720;23.336;2023-08-31T07:27:15;3.67;;;2.20;;
5295;SDS011;2670;42.720;23.336;2023-08-31T07:29:42;7.83;;;2.97;;
5295;SDS011;2670;42.720;23.336;2023-08-31T07:32:08;3.97;;;2.60;;
5295;SDS011;2670;42.720;23.336;2023-08-31T07:34:35;7.50;;;2.50;;
5295;SDS011;2670;42.720;23.336;2023-08-31T07:37:02;10.53;;;2.60;;
5295;SDS011;2670;42.720;23.336;2023-08-31T07:39:29;10.70;;;2.70;;
5295;SDS011;2670;42.720;23.336;2023-08-31T07:41:57;6.50;;;3.00;;
5295;SDS011;2670;42.720;23.336;2023-08-31T07:44:24;4.90;;;3.00;;
5295;SDS011;2670;42.720;23.336;2023-08-31T07:46:51;6.00;;;1.90;;
5295;SDS011;2670;42.720;23.336;2023-08-31T07:49:18;6.23;;;2.10;;
5295;SDS011;2670;42.720;23.336;2023-08-31T07:51:44;9.00;;;2.50;;
5295;SDS011;2670;42.720;23.336;2023-08-31T07:54:11;8.13;;;3.00;;
5295;SDS011;2670;42.720;23.336;2023-08-31T07:56:46;8.60;;;2.33;;
5295;SDS011;2670;42.720;23.336;2023-08-31T07:59:14;9.47;;;2.60;;
5295;SDS011;2670;42.720;23.336;2023-08-31T08:01:40;6.93;;;2.30;;
5295;SDS011;2670;42.720;23.336;2023-08-31T08:04:07;5.60;;;2.17;;
5295;SDS011;2670;42.720;23.336;2023-08-31T08:06:34;6.20;;;2.20;;
5295;SDS011;2670;42.720;23.336;2023-08-31T08:09:01;6.00;;;2.23;;
5295;SDS011;2670;42.720;23.336;2023-08-31T08:11:27;9.73;;;2.47;;
5295;SDS011;2670;42.720;23.336;2023-08-31T08:13:54;5.03;;;1.83;;
5295;SDS011;2670;42.720;23.336;2023-08-31T08:16:22;10.10;;;2.43;;
5295;SDS011;2670;42.720;23.336;2023-08-31T08:18:49;7.57;;;2.80;;
5295;SDS011;2670;42.720;23.336;2023-08-31T08:21:16;3.70;;;2.20;;
5295;SDS011;2670;42.720;23.336;2023-08-31T08:23:43;5.90;;;2.43;;
5295;SDS011;2670;42.720;23.336;2023-08-31T08:26:09;4.60;;;2.37;;
5295;SDS011;2670;42.720;23.336;2023-08-31T08:28:36;6.17;;;2.40;;
5295;SDS011;2670;42.720;23.336;2023-08-31T08:31:03;6.83;;;2.30;;
5295;SDS011;2670;42.720;23.336;2023-08-31T08:33:31;3.90;;;2.00;;
5295;SDS011;2670;42.720;23.336;2023-08-31T08:35:58;4.10;;;2.73;;
5295;SDS011;2670;42.720;23.336;2023-08-31T08:38:25;10.37;;;4.93;;
5295;SDS011;2670;42.720;23.336;2023-08-31T08:40:51;7.70;;;3.27;;
5295;SDS011;2670;42.720;23.336;2023-08-31T08:43:19;8.50;;;3.93;;
5295;SDS011;2670;42.720;23.336;2023-08-31T08:45:50;9.20;;;3.93;;
5295;SDS011;2670;42.720;23.336;2023-08-31T08:48:18;6.10;;;3.43;;
5295;SDS011;2670;42.720;23.336;2023-08-31T08:50:48;11.20;;;3.73;;
5295;SDS011;2670;42.720;23.336;2023-08-31T08:53:15;5.73;;;2.80;;
5295;SDS011;2670;42.720;23.336;2023-08-31T08:55:42;7.40;;;2.80;;
5295;SDS011;2670;42.720;23.336;2023-08-31T08:58:10;7.00;;;2.50;;
5295;SDS011;2670;42.720;23.336;2023-08-31T09:00:37;7.20;;;2.70;;
5295;SDS011;2670;42.720;23.336;2023-08-31T09:03:05;5.87;;;3.30;;
5295;SDS011;2670;42.720;23.336;2023-08-31T09:05:32;4.80;;;3.37;;
5295;SDS011;2670;42.720;23.336;2023-08-31T09:08:06;7.50;;;3.90;;
5295;SDS011;2670;42.720;23.336;2023-08-31T09:10:36;7.40;;;3.43;;
5295;SDS011;2670;42.720;23.336;2023-08-31T09:13:04;6.60;;;3.37;;
5295;SDS011;2670;42.720;23.336;2023-08-31T09:15:36;7.87;;;3.70;;
5295;SDS011;2670;42.720;23.336;2023-08-31T09:18:06;8.80;;;3.50;;
5295;SDS011;2670;42.720;23.336;2023-08-31T09:20:40;4.87;;;2.80;;
5295;SDS011;2670;42.720;23.336;2023-08-31T09:23:10;4.87;;;3.27;;
5295;SDS011;2670;42.720;23.336;2023-08-31T09:25:46;7.53;;;3.70;;
5295;SDS011;2670;42.720;23.336;2023-08-31T09:28:14;6.27;;;3.00;;
5295;SDS011;2670;42.720;23.336;2023-08-31T09:30:42;6.37;;;3.60;;
5295;SDS011;2670;42.720;23.336;2023-08-31T09:33:09;7.47;;;3.97;;
5295;SDS011;2670;42.720;23.336;2023-08-31T09:35:41;7.33;;;3.50;;
5295;SDS011;2670;42.720;23.336;2023-08-31T09:38:15;6.27;;;3.90;;
5295;SDS011;2670;42.720;23.336;2023-08-31T09:40:42;8.03;;;4.17;;
5295;SDS011;2670;42.720;23.336;2023-08-31T09:43:09;7.23;;;3.73;;
5295;SDS011;2670;42.720;23.336;2023-08-31T09:45:35;7.57;;;3.30;;
5295;SDS011;2670;42.720;23.336;2023-08-31T09:48:04;5.80;;;3.53;;
5295;SDS011;2670;42.720;23.336;2023-08-31T09:50:32;6.50;;;3.90;;
5295;SDS011;2670;42.720;23.336;2023-08-31T09:53:01;10.87;;;4.30;;
5295;SDS011;2670;42.720;23.336;2023-08-31T09:55:31;7.60;;;3.37;;
5295;SDS011;2670;42.720;23.336;2023-08-31T09:58:00;5.27;;;3.63;;
5295;SDS011;2670;42.720;23.336;2023-08-31T10:00:29;6.83;;;4.43;;
5295;SDS011;2670;42.720;23.336;2023-08-31T10:02:57;9.00;;;4.17;;
5295;SDS011;2670;42.720;23.336;2023-08-31T10:05:27;7.90;;;4.03;;
5295;SDS011;2670;42.720;23.336;2023-08-31T10:07:54;7.03;;;3.97;;
5295;SDS011;2670;42.720;23.336;2023-08-31T10:10:21;5.80;;;3.67;;
5295;SDS011;2670;42.720;23.336;2023-08-31T10:12:50;5.40;;;3.33;;
5295;SDS011;2670;42.720;23.336;2023-08-31T10:15:17;6.87;;;3.50;;
5295;SDS011;2670;42.720;23.336;2023-08-31T10:17:45;6.10;;;3.70;;
5295;SDS011;2670;42.720;23.336;2023-08-31T10:20:13;5.83;;;3.90;;
5295;SDS011;2670;42.720;23.336;2023-08-31T10:22:42;8.57;;;4.53;;
5295;SDS011;2670;42.720;23.336;2023-08-31T10:25:09;7.03;;;4.77;;
5295;SDS011;2670;42.720;23.336;2023-08-31T10:27:37;7.30;;;4.40;;
5295;SDS011;2670;42.720;23.336;2023-08-31T10:30:20;7.07;;;4.50;;
5295;SDS011;2670;42.720;23.336;2023-08-31T10:35:49;6.77;;;3.50;;
5295;SDS011;2670;42.720;23.336;2023-08-31T10:38:23;6.80;;;3.90;;
5295;SDS011;2670;42.720;23.336;2023-08-31T10:41:01;6.60;;;3.90;;
5295;SDS011;2670;42.720;23.336;2023-08-31T10:43:44;7.10;;;4.53;;
5295;SDS011;2670;42.720;23.336;2023-08-31T10:46:20;6.10;;;3.63;;
5295;SDS011;2670;42.720;23.336;2023-08-31T10:48:52;7.07;;;4.50;;
5295;SDS011;2670;42.720;23.336;2023-08-31T10:51:21;12.40;;;5.20;;
5295;SDS011;2670;42.720;23.336;2023-08-31T10:53:48;6.00;;;3.67;;
5295;SDS011;2670;42.720;23.336;2023-08-31T10:56:15;10.47;;;4.07;;
5295;SDS011;2670;42.720;23.336;2023-08-31T10:58:43;5.93;;;3.80;;
5295;SDS011;2670;42.720;23.336;2023-08-31T11:01:10;8.70;;;4.60;;
5295;SDS011;2670;42.720;23.336;2023-08-31T11:06:35;7.50;;;3.20;;
5295;SDS011;2670;42.720;23.336;2023-08-31T11:09:02;9.23;;;3.90;;
5295;SDS011;2670;42.720;23.336;2023-08-31T11:11:29;14.73;;;3.83;;
5295;SDS011;2670;42.720;23.336;2023-08-31T11:14:04;6.03;;;3.83;;
5295;SDS011;2670;42.720;23.336;2023-08-31T11:16:30;8.10;;;3.93;;
5295;SDS011;2670;42.720;23.336;2023-08-31T11:19:01;6.40;;;3.83;;
5295;SDS011;2670;42.720;23.336;2023-08-31T11:21:29;6.40;;;3.47;;
5295;SDS011;2670;42.720;23.336;2023-08-31T11:23:57;11.10;;;3.47;;
5295;SDS011;2670;42.720;23.336;2023-08-31T11:26:24;5.00;;;3.40;;
5295;SDS011;2670;42.720;23.336;2023-08-31T11:28:51;4.87;;;3.37;;
5295;SDS011;2670;42.720;23.336;2023-08-31T11:31:22;6.30;;;3.90;;
5295;SDS011;2670;42.720;23.336;2023-08-31T11:33:49;13.00;;;3.70;;
5295;SDS011;2670;42.720;23.336;2023-08-31T11:36:18;5.27;;;3.63;;
5295;SDS011;2670;42.720;23.336;2023-08-31T11:38:45;4.57;;;3.23;;
5295;SDS011;2670;42.720;23.336;2023-08-31T11:41:13;4.10;;;3.17;;
5295;SDS011;2670;42.720;23.336;2023-08-31T11:43:40;5.20;;;3.10;;
5295;SDS011;2670;42.720;23.336;2023-08-31T11:46:07;5.23;;;3.17;;
5295;SDS011;2670;42.720;23.336;2023-08-31T11:48:35;7.20;;;2.90;;
5295;SDS011;2670;42.720;23.336;2023-08-31T11:51:02;8.37;;;2.83;;
5295;SDS011;2670;42.720;23.336;2023-08-31T11:53:31;4.77;;;3.10;;
5295;SDS011;2670;42.720;23.336;2023-08-31T11:55:57;6.53;;;3.20;;
5295;SDS011;2670;42.720;23.336;2023-08-31T11:58:28;5.00;;;3.10;;
5295;SDS011;2670;42.720;23.336;2023-08-31T12:00:55;6.70;;;3.20;;
5295;SDS011;2670;42.720;23.336;2023-08-31T12:03:23;8.20;;;2.90;;
5295;SDS011;2670;42.720;23.336;2023-08-31T12:05:51;4.97;;;3.00;;
5295;SDS011;2670;42.720;23.336;2023-08-31T12:08:23;5.53;;;2.90;;
5295;SDS011;2670;42.720;23.336;2023-08-31T12:10:52;8.27;;;3.07;;
5295;SDS011;2670;42.720;23.336;2023-08-31T12:13:19;5.83;;;3.50;;
5295;SDS011;2670;42.720;23.336;2023-08-31T12:15:47;7.40;;;3.30;;
5295;SDS011;2670;42.720;23.336;2023-08-31T12:18:18;9.10;;;3.47;;
5295;SDS011;2670;42.720;23.336;2023-08-31T12:20:45;6.13;;;2.87;;
5295;SDS011;2670;42.720;23.336;2023-08-31T12:23:12;6.17;;;3.77;;
5295;SDS011;2670;42.720;23.336;2023-08-31T12:25:44;4.17;;;2.90;;
5295;SDS011;2670;42.720;23.336;2023-08-31T12:28:14;6.17;;;2.53;;
5295;SDS011;2670;42.720;23.336;2023-08-31T12:30:41;6.10;;;3.40;;
5295;SDS011;2670;42.720;23.336;2023-08-31T12:33:09;8.13;;;3.40;;
5295;SDS011;2670;42.720;23.336;2023-08-31T12:35:36;11.27;;;3.53;;
5295;SDS011;2670;42.720;23.336;2023-08-31T12:38:03;12.63;;;3.40;;
5295;SDS011;2670;42.720;23.336;2023-08-31T12:40:30;5.70;;;3.07;;
5295;SDS011;2670;42.720;23.336;2023-08-31T12:42:57;5.20;;;3.10;;
5295;SDS011;2670;42.720;23.336;2023-08-31T12:45:25;13.23;;;2.77;;
5295;SDS011;2670;42.720;23.336;2023-08-31T12:47:52;5.33;;;2.83;;
5295;SDS011;2670;42.720;23.336;2023-08-31T12:50:19;9.80;;;3.00;;
5295;SDS011;2670;42.720;23.336;2023-08-31T12:52:45;7.93;;;2.80;;
5295;SDS011;2670;42.720;23.336;2023-08-31T12:55:12;5.27;;;2.77;;
5295;SDS011;2670;42.720;23.336;2023-08-31T12:57:39;6.37;;;3.20;;
5295;SDS011;2670;42.720;23.336;2023-08-31T13:00:07;4.73;;;3.10;;
5295;SDS011;2670;42.720;23.336;2023-08-31T13:02:38;5.77;;;2.93;;
5295;SDS011;2670;42.720;23.336;2023-08-31T13:05:05;5.80;;;2.70;;
5295;SDS011;2670;42.720;23.336;2023-08-31T13:07:33;6.80;;;3.30;;
5295;SDS011;2670;42.720;23.336;2023-08-31T13:10:00;5.97;;;3.20;;
5295;SDS011;2670;42.720;23.336;2023-08-31T13:12:29;8.40;;;3.60;;
5295;SDS011;2670;42.720;23.336;2023-08-31T13:14:55;8.03;;;3.00;;
5295;SDS011;2670;42.720;23.336;2023-08-31T13:17:22;5.27;;;2.53;;
5295;SDS011;2670;42.720;23.336;2023-08-31T13:19:53;5.33;;;3.00;;
5295;SDS011;2670;42.720;23.336;2023-08-31T13:22:20;5.47;;;2.50;;
5295;SDS011;2670;42.720;23.336;2023-08-31T13:24:47;7.23;;;3.00;;
5295;SDS011;2670;42.720;23.336;2023-08-31T13:27:14;6.57;;;2.80;;
5295;SDS011;2670;42.720;23.336;2023-08-31T13:29:41;9.07;;;3.63;;
5295;SDS011;2670;42.720;23.336;2023-08-31T13:32:08;9.70;;;3.37;;
5295;SDS011;2670;42.720;23.336;2023-08-31T13:34:35;8.53;;;3.20;;
5295;SDS011;2670;42.720;23.336;2023-08-31T13:37:04;3.70;;;2.30;;
5295;SDS011;2670;42.720;23.336;2023-08-31T13:39:31;7.57;;;2.77;;
5295;SDS011;2670;42.720;23.336;2023-08-31T13:42:00;3.10;;;2.30;;
5295;SDS011;2670;42.720;23.336;2023-08-31T13:44:28;3.30;;;2.10;;
5295;SDS011;2670;42.720;23.336;2023-08-31T13:46:55;8.90;;;2.80;;
5295;SDS011;2670;42.720;23.336;2023-08-31T13:49:22;5.93;;;2.53;;
5295;SDS011;2670;42.720;23.336;2023-08-31T13:51:49;4.00;;;2.60;;
5295;SDS011;2670;42.720;23.336;2023-08-31T13:54:17;14.77;;;2.73;;
5295;SDS011;2670;42.720;23.336;2023-08-31T13:56:44;8.73;;;2.63;;
5295;SDS011;2670;42.720;23.336;2023-08-31T13:59:10;8.67;;;2.77;;
5295;SDS011;2670;42.720;23.336;2023-08-31T14:01:37;6.73;;;2.60;;
5295;SDS011;2670;42.720;23.336;2023-08-31T14:04:04;11.10;;;2.70;;
5295;SDS011;2670;42.720;23.336;2023-08-31T14:06:31;6.00;;;2.77;;
5295;SDS011;2670;42.720;23.336;2023-08-31T14:08:57;7.43;;;2.93;;
5295;SDS011;2670;42.720;23.336;2023-08-31T14:11:25;8.47;;;3.50;;
5295;SDS011;2670;42.720;23.336;2023-08-31T14:14:00;4.93;;;2.83;;
5295;SDS011;2670;42.720;23.336;2023-08-31T14:16:28;7.27;;;3.43;;
5295;SDS011;2670;42.720;23.336;2023-08-31T14:18:55;7.80;;;2.83;;
5295;SDS011;2670;42.720;23.336;2023-08-31T14:21:22;6.67;;;2.87;;
5295;SDS011;2670;42.720;23.336;2023-08-31T14:23:48;6.03;;;2.53;;
5295;SDS011;2670;42.720;23.336;2023-08-31T14:26:20;8.83;;;3.40;;
5295;SDS011;2670;42.720;23.336;2023-08-31T14:28:49;4.37;;;2.43;;
5295;SDS011;2670;42.720;23.336;2023-08-31T14:31:16;6.63;;;2.83;;
5295;SDS011;2670;42.720;23.336;2023-08-31T14:33:43;8.10;;;3.10;;
5295;SDS011;2670;42.720;23.336;2023-08-31T14:36:10;7.00;;;2.70;;
5295;SDS011;2670;42.720;23.336;2023-08-31T14:38:37;8.00;;;2.87;;
5295;SDS011;2670;42.720;23.336;2023-08-31T14:41:04;6.83;;;3.00;;
5295;SDS011;2670;42.720;23.336;2023-08-31T14:43:31;5.03;;;2.60;;
5295;SDS011;2670;42.720;23.336;2023-08-31T14:45:59;5.93;;;2.80;;
5295;SDS011;2670;42.720;23.336;2023-08-31T14:48:26;8.20;;;3.00;;
5295;SDS011;2670;42.720;23.336;2023-08-31T14:50:54;7.13;;;3.20;;
5295;SDS011;2670;42.720;23.336;2023-08-31T14:53:23;13.83;;;5.63;;
5295;SDS011;2670;42.720;23.336;2023-08-31T14:55:50;11.80;;;4.10;;
5295;SDS011;2670;42.720;23.336;2023-08-31T14:58:17;9.30;;;3.20;;
5295;SDS011;2670;42.720;23.336;2023-08-31T15:00:44;6.37;;;2.80;;
5295;SDS011;2670;42.720;23.336;2023-08-31T15:03:13;7.67;;;3.23;;
5295;SDS011;2670;42.720;23.336;2023-08-31T15:05:39;5.07;;;2.80;;